AirNav   Free Bose QuietComfort 20
 
 1333 users online  

0FA0 Doral Resort & Country Club Heliport
Miami, Florida, USA

GOING TO MIAMI?


FAA INFORMATION EFFECTIVE 05 DECEMBER 2019

Location

FAA Identifier: 0FA0
Lat/Long: 25-49-02.5000N 080-20-25.4000W
25-49.041667N 080-20.423333W
25.8173611,-80.3403889
(estimated)
Elevation: 23 ft. / 7 m (estimated)
Variation: 03W (1985)
From city: 8 miles NW of MIAMI, FL
Time zone: UTC -5 (UTC -4 during Daylight Saving Time)
Zip code: 33178

Heliport Operations

Heliport use: Private use. Permission required prior to landing
Activation date: 03/1960
Control tower: no
ARTCC: MIAMI CENTER
FSS: MIAMI FLIGHT SERVICE STATION
Attendance: CONTINUOUS
Wind indicator: no
Segmented circle: no

Heliport Communications

WX ASOS at MIA (3 nm SE): PHONE 305-870-0235
WX ASOS at OPF (6 nm NE): 125.9 (305-681-4063)
WX ASOS at TMB (11 nm SW): PHONE 305-235-1332
WX ASOS at HWO (12 nm NE): PHONE 954-983-5904
WX ASOS at FLL (18 nm NE): PHONE 954-359-7857

Nearby radio navigation aids

VOR radial/distance  VOR name  Freq  Var
DHPr028/1.1DOLPHIN VORTAC113.9004W
VKZr295/10.8VIRGINIA KEY VOR/DME117.1004W
FLLr217/18.0FORT LAUDERDALE VOR/DME114.4006W

Heliport Services

Airframe service: NONE
Powerplant service: NONE

Runway Information

Helipad H1

Dimensions: 48 x 48 ft. / 15 x 15 m
Surface: concrete, in fair condition
Runway edge lights: PERI
Latitude: 25-49.041667N
Longitude: 080-20.423333W
Elevation: 23.0 ft.
Traffic pattern: leftleft
Markings: none, in good condition

Heliport Ownership and Management from official FAA records

Ownership: Privately-owned
Owner: TRUMP NATL DORAL GOLF RESORT & SPA
4400 NW 87TH AVENUE
MIAMI, FL 33178
Phone 305-591-6608
Manager: DARRIN HELFRICK
4400 NW 87TH AVENUE
MIAMI, FL 33178
Phone 305-591-6608

Additional Remarks

CTC TRUMP NATL DORAL FOR INFORMATION ON ACCESS. USE OF PILOT BRIEFING IS MANDATORY AND CONTAINS IMPORTANT AERONAUTICAL INFORMATION.
FOR CD CTC MIAMI APCH AT 305-869-5432.

Instrument Procedures

There are no published instrument procedures at 0FA0.

Some nearby airports with instrument procedures:

KMIA - Miami International Airport (3 nm SE)
KOPF - Miami-Opa Locka Executive Airport (6 nm NE)
KTMB - Miami Executive Airport (11 nm SW)
KHWO - North Perry Airport (12 nm NE)
KFLL - Fort Lauderdale/Hollywood International Airport (18 nm NE)
KHST - Homestead Air Reserve Base (20 nm S)
 
Loc | Ops | Rwys | IFR | FBO | Links
Com | Nav | Svcs | Stats | Notes

Reliance Aviation
AirBoss

 
Area around 0FA0 (Doral Resort & Country Club Heliport)
 
Road maps at: MapQuest Bing Google
 
Aerial photo
No photo
 
Sectional chart

 
Airport distance calculator
Flying to Doral Resort & Country Club Heliport? Find the distance to fly.

From to 0FA0

Sunrise and sunset
Times for 06-Dec-2019
 Local
(UTC-5)
 Zulu
(UTC)
Morning civil twilight06:3111:31
Sunrise06:5611:56
Sunset17:2922:29
Evening civil twilight17:5422:54

Current date and time
Zulu (UTC)  06-Dec-2019 15:08:01
Local (UTC-5)  06-Dec-2019 10:08:01
 
METAR
KMIA 
2nm SE 
061453Z 03004KT 10SM FEW045 SCT250 23/13 A3019 RMK AO2 SLP224 T02280133 51010
KOPF 
7nm NE 
061453Z 35003KT 10SM CLR 22/15 A3020 RMK AO2 SLP227 T02220150 52012 $
KTMB 
11nm SW 
061453Z 03004KT 10SM CLR 23/15 A3019 RMK AO2 SLP221 T02280150 51009
KHWO 
12nm NE 
061453Z 34004KT 10SM CLR 23/14 A3020 RMK AO2 SLP227 T02280139 51010 $
KFLL 
18nm NE 
061453Z 33005KT 10SM FEW045 BKN250 22/14 A3018 RMK AO2 SLP220 T02220144 51010 $
TAF
KMIA 
2nm SE 
061122Z 0612/0718 35005KT P6SM SCT250 FM061600 12008KT P6SM FEW035 SCT250 FM070000 VRB03KT P6SM SCT250 FM071600 09008KT P6SM SCT250
KOPF 
7nm NE 
061122Z 0612/0712 35005KT P6SM SCT250 FM061600 12006KT P6SM FEW035 SCT250 FM070000 VRB03KT P6SM SCT250
KTMB 
11nm SW 
061122Z 0612/0712 VRB03KT P6SM SCT250 FM061600 12006KT P6SM FEW250 FM070000 VRB03KT P6SM FEW250
KFLL 
18nm NE 
061122Z 0612/0718 33005KT P6SM SCT250 FM061600 12008KT P6SM FEW035 SCT250 FM070100 VRB03KT P6SM SCT250 FM071600 08008KT P6SM SCT250
NOTAMs
Click for the latest NOTAMs
NOTAMs are issued by the DoD/FAA and will open in a separate window not controlled by AirNav.

 

 
 

Would you like to see your business listed on this page?

 If your business provides an interesting product or service to pilots, flight crews, aircraft, or users of the Doral Resort & Country Club Heliport, you should consider listing it here.  To start the listing process, click on the button below
 
Add a business
 

Other Pages about Doral Resort & Country Club Heliport

Update a link
 
Copyright © AirNav, LLC. All rights reserved. Privacy Policy  Contact